SAOU/LUQ METAR and TAF weather

Enter ICAO airport designator
Station Type Date Time Source
SAOU METAR 2022/01/25 21:15 UTC NOAA

SAOU 252115Z 09009KT 9999 BKN035 FEW045CB 20/20 Q1008 RETSRA RMK CB OBS TO E


Station Type Date Time Source
SAOU Decoded METAR 2022/01/25 21:15 UTC NOAA

San Luis Aerodrome, Argentina (SAOU) 33-16S 066-21W 713M
Jan 25, 2022 - 04:15 PM EST / 2022.01.25 2115 UTC
Wind: from the E (090 degrees) at 10 MPH (9 KT):0
Visibility: greater than 7 mile(s):0
Sky conditions: mostly cloudy
Weather: Cumulonimbus clouds observed
Temperature: 68 F (20 C)
Dew Point: 68 F (20 C)
Relative Humidity: 100%
Pressure (altimeter): 29.77 in. Hg (1008 hPa)
ob: SAOU 252115Z 09009KT 9999 BKN035 FEW045CB 20/20 Q1008 RETSRA RMK CB OBS TO E
cycle: 21

Station Type Date Time Source
SAOU TAF 2022/01/13 06:09 UTC NOAA

TAF SAOU 130500Z 1306/1406 36010KT CAVOK TX41/1320Z TN28/1307Z
BECMG 1309/1311 36015KT
BECMG 1321/1323 36010KT

Example: see airport list